TimePDT,TemperatureF,Dew PointF,Humidity,Sea Level PressureIn,VisibilityMPH,Wind Direction,Wind SpeedMPH,Gust SpeedMPH,PrecipitationIn,Events,Conditions,WindDirDegrees,DateUTC
12:56 AM,41.0,21.9,47,30.52,10.0,Calm,Calm,-,N/A,,Clear,0,2013-05-02 07:56:00
1:56 AM,37.9,19.9,48,30.52,10.0,South,4.6,-,N/A,,Clear,170,2013-05-02 08:56:00
2:56 AM,35.1,19.0,52,30.51,10.0,South,3.5,-,N/A,,Clear,170,2013-05-02 09:56:00
3:56 AM,33.1,18.0,54,30.51,10.0,South,6.9,-,N/A,,Clear,170,2013-05-02 10:56:00
4:56 AM,32.0,18.0,56,30.53,10.0,SSE,8.1,-,N/A,,Clear,160,2013-05-02 11:56:00
5:56 AM,30.9,16.0,54,30.52,10.0,SE,3.5,-,N/A,,Clear,130,2013-05-02 12:56:00
6:56 AM,37.9,17.1,43,30.51,10.0,Calm,Calm,-,N/A,,Clear,0,2013-05-02 13:56:00
7:56 AM,44.1,17.1,34,30.51,10.0,Calm,Calm,-,N/A,,Clear,0,2013-05-02 14:56:00
8:56 AM,53.1,17.1,24,30.49,10.0,Calm,Calm,-,N/A,,Clear,0,2013-05-02 15:56:00
9:56 AM,60.1,9.0,13,30.45,10.0,SSE,9.2,-,N/A,,Clear,160,2013-05-02 16:56:00
10:56 AM,64.0,10.0,12,30.41,10.0,Variable,4.6,-,N/A,,Clear,0,2013-05-02 17:56:00
11:56 AM,69.1,1.0,7,30.38,10.0,ESE,10.4,-,N/A,,Clear,110,2013-05-02 18:56:00
12:56 PM,70.0,-0.9,6,30.35,10.0,Variable,4.6,-,N/A,,Clear,0,2013-05-02 19:56:00
1:56 PM,73.0,1.0,6,30.32,10.0,ESE,10.4,-,N/A,,Clear,120,2013-05-02 20:56:00
2:56 PM,73.9,-5.1,4,30.31,10.0,ENE,5.8,-,N/A,,Clear,60,2013-05-02 21:56:00
3:56 PM,75.0,-6.0,4,30.29,10.0,Variable,5.8,-,N/A,,Clear,0,2013-05-02 22:56:00
4:56 PM,75.9,-2.0,5,30.26,10.0,North,9.2,-,N/A,,Clear,10,2013-05-02 23:56:00
5:56 PM,73.0,19.0,13,30.25,10.0,NNW,12.7,20.7,N/A,,Clear,330,2013-05-03 00:56:00
6:56 PM,70.0,21.9,16,30.25,10.0,NNW,13.8,-,N/A,,Clear,340,2013-05-03 01:56:00
7:56 PM,66.0,21.9,19,30.25,10.0,North,8.1,-,N/A,,Clear,350,2013-05-03 02:56:00
8:56 PM,51.1,19.0,28,30.26,10.0,Calm,Calm,-,N/A,,Clear,0,2013-05-03 03:56:00
9:56 PM,55.9,21.9,27,30.25,10.0,NNE,4.6,-,N/A,,Clear,20,2013-05-03 04:56:00
10:56 PM,55.0,24.1,30,30.26,10.0,West,5.8,-,N/A,,Clear,280,2013-05-03 05:56:00
11:56 PM,54.0,24.1,31,30.25,10.0,WNW,8.1,-,N/A,,Clear,300,2013-05-03 06:56:00